sensor_id;sensor_type;location;lat;lon;timestamp;P1;durP1;ratioP1;P2;durP2;ratioP2
52898;SDS011;38763;53.096;6.062;2023-03-11T00:00:06;9.75;;;1.40;;
52898;SDS011;38763;53.096;6.062;2023-03-11T00:02:37;4.18;;;1.40;;
52898;SDS011;38763;53.096;6.062;2023-03-11T00:05:07;5.78;;;0.90;;
52898;SDS011;38763;53.096;6.062;2023-03-11T00:07:33;6.47;;;1.10;;
52898;SDS011;38763;53.096;6.062;2023-03-11T00:09:58;5.55;;;1.10;;
52898;SDS011;38763;53.096;6.062;2023-03-11T00:12:24;7.03;;;1.27;;
52898;SDS011;38763;53.096;6.062;2023-03-11T00:14:50;4.95;;;0.93;;
52898;SDS011;38763;53.096;6.062;2023-03-11T00:17:16;6.15;;;0.90;;
52898;SDS011;38763;53.096;6.062;2023-03-11T00:19:41;5.65;;;1.10;;
52898;SDS011;38763;53.096;6.062;2023-03-11T00:22:07;4.45;;;1.50;;
52898;SDS011;38763;53.096;6.062;2023-03-11T00:24:33;7.18;;;1.20;;
52898;SDS011;38763;53.096;6.062;2023-03-11T00:26:58;4.65;;;1.02;;
52898;SDS011;38763;53.096;6.062;2023-03-11T00:29:24;4.28;;;1.20;;
52898;SDS011;38763;53.096;6.062;2023-03-11T00:31:50;3.33;;;1.08;;
52898;SDS011;38763;53.096;6.062;2023-03-11T00:34:15;10.07;;;1.70;;
52898;SDS011;38763;53.096;6.062;2023-03-11T00:36:41;4.00;;;0.95;;
52898;SDS011;38763;53.096;6.062;2023-03-11T00:39:07;8.70;;;1.23;;
52898;SDS011;38763;53.096;6.062;2023-03-11T00:41:33;6.25;;;1.05;;
52898;SDS011;38763;53.096;6.062;2023-03-11T00:43:59;8.93;;;1.20;;
52898;SDS011;38763;53.096;6.062;2023-03-11T00:46:25;7.57;;;1.20;;
52898;SDS011;38763;53.096;6.062;2023-03-11T00:48:52;6.07;;;1.20;;
52898;SDS011;38763;53.096;6.062;2023-03-11T00:51:18;7.32;;;1.15;;
52898;SDS011;38763;53.096;6.062;2023-03-11T00:53:44;6.82;;;1.27;;
52898;SDS011;38763;53.096;6.062;2023-03-11T00:56:10;4.93;;;1.10;;
52898;SDS011;38763;53.096;6.062;2023-03-11T00:58:37;7.47;;;1.42;;
52898;SDS011;38763;53.096;6.062;2023-03-11T01:01:07;3.53;;;1.23;;
52898;SDS011;38763;53.096;6.062;2023-03-11T01:03:34;5.28;;;1.10;;
52898;SDS011;38763;53.096;6.062;2023-03-11T01:06:00;5.88;;;1.20;;
52898;SDS011;38763;53.096;6.062;2023-03-11T01:08:26;4.90;;;1.20;;
52898;SDS011;38763;53.096;6.062;2023-03-11T01:10:53;4.10;;;1.00;;
52898;SDS011;38763;53.096;6.062;2023-03-11T01:13:19;5.90;;;0.88;;
52898;SDS011;38763;53.096;6.062;2023-03-11T01:15:45;5.65;;;1.20;;
52898;SDS011;38763;53.096;6.062;2023-03-11T01:18:10;5.78;;;1.05;;
52898;SDS011;38763;53.096;6.062;2023-03-11T01:20:36;4.07;;;0.90;;
52898;SDS011;38763;53.096;6.062;2023-03-11T01:23:03;5.45;;;0.93;;
52898;SDS011;38763;53.096;6.062;2023-03-11T01:25:29;5.05;;;0.88;;
52898;SDS011;38763;53.096;6.062;2023-03-11T01:27:54;3.55;;;0.98;;
52898;SDS011;38763;53.096;6.062;2023-03-11T01:30:22;2.47;;;0.88;;
52898;SDS011;38763;53.096;6.062;2023-03-11T01:32:49;4.47;;;1.15;;
52898;SDS011;38763;53.096;6.062;2023-03-11T01:35:16;7.07;;;1.13;;
52898;SDS011;38763;53.096;6.062;2023-03-11T01:37:43;4.75;;;1.10;;
52898;SDS011;38763;53.096;6.062;2023-03-11T01:40:26;7.00;;;1.13;;
52898;SDS011;38763;53.096;6.062;2023-03-11T01:42:55;7.10;;;1.00;;
52898;SDS011;38763;53.096;6.062;2023-03-11T01:47:49;3.92;;;0.98;;
52898;SDS011;38763;53.096;6.062;2023-03-11T01:50:15;3.10;;;1.15;;
52898;SDS011;38763;53.096;6.062;2023-03-11T01:52:41;4.00;;;1.13;;
52898;SDS011;38763;53.096;6.062;2023-03-11T01:55:08;3.30;;;1.10;;
52898;SDS011;38763;53.096;6.062;2023-03-11T01:57:34;5.28;;;1.10;;
52898;SDS011;38763;53.096;6.062;2023-03-11T02:00:03;5.18;;;1.02;;
52898;SDS011;38763;53.096;6.062;2023-03-11T02:02:34;5.82;;;1.20;;
52898;SDS011;38763;53.096;6.062;2023-03-11T02:05:04;3.25;;;1.00;;
52898;SDS011;38763;53.096;6.062;2023-03-11T02:07:30;5.38;;;1.10;;
52898;SDS011;38763;53.096;6.062;2023-03-11T02:09:56;5.53;;;1.30;;
52898;SDS011;38763;53.096;6.062;2023-03-11T02:12:22;5.28;;;1.35;;
52898;SDS011;38763;53.096;6.062;2023-03-11T02:14:49;6.63;;;1.10;;
52898;SDS011;38763;53.096;6.062;2023-03-11T02:17:17;4.43;;;1.00;;
52898;SDS011;38763;53.096;6.062;2023-03-11T02:22:43;6.32;;;1.00;;
52898;SDS011;38763;53.096;6.062;2023-03-11T02:28:07;3.75;;;1.35;;
52898;SDS011;38763;53.096;6.062;2023-03-11T02:30:36;5.05;;;0.93;;
52898;SDS011;38763;53.096;6.062;2023-03-11T02:33:05;2.65;;;0.90;;
52898;SDS011;38763;53.096;6.062;2023-03-11T02:35:32;4.70;;;1.38;;
52898;SDS011;38763;53.096;6.062;2023-03-11T02:37:58;4.80;;;1.30;;
52898;SDS011;38763;53.096;6.062;2023-03-11T02:42:59;5.57;;;1.13;;
52898;SDS011;38763;53.096;6.062;2023-03-11T02:45:29;7.50;;;1.33;;
52898;SDS011;38763;53.096;6.062;2023-03-11T02:47:56;3.30;;;1.00;;
52898;SDS011;38763;53.096;6.062;2023-03-11T02:50:23;4.18;;;1.20;;
52898;SDS011;38763;53.096;6.062;2023-03-11T02:52:51;4.63;;;1.42;;
52898;SDS011;38763;53.096;6.062;2023-03-11T02:55:17;5.40;;;1.20;;
52898;SDS011;38763;53.096;6.062;2023-03-11T02:57:44;4.68;;;1.25;;
52898;SDS011;38763;53.096;6.062;2023-03-11T03:00:11;4.47;;;1.23;;
52898;SDS011;38763;53.096;6.062;2023-03-11T03:02:40;8.00;;;1.13;;
52898;SDS011;38763;53.096;6.062;2023-03-11T03:05:07;4.72;;;1.20;;
52898;SDS011;38763;53.096;6.062;2023-03-11T03:07:33;8.35;;;1.30;;
52898;SDS011;38763;53.096;6.062;2023-03-11T03:09:59;3.10;;;1.13;;
52898;SDS011;38763;53.096;6.062;2023-03-11T03:12:24;5.50;;;1.05;;
52898;SDS011;38763;53.096;6.062;2023-03-11T03:14:50;5.07;;;1.20;;
52898;SDS011;38763;53.096;6.062;2023-03-11T03:17:16;3.97;;;1.00;;
52898;SDS011;38763;53.096;6.062;2023-03-11T03:19:41;5.90;;;1.00;;
52898;SDS011;38763;53.096;6.062;2023-03-11T03:22:07;6.05;;;1.30;;
52898;SDS011;38763;53.096;6.062;2023-03-11T03:24:33;4.28;;;1.42;;
52898;SDS011;38763;53.096;6.062;2023-03-11T03:26:58;5.95;;;1.10;;
52898;SDS011;38763;53.096;6.062;2023-03-11T03:29:24;7.00;;;1.20;;
52898;SDS011;38763;53.096;6.062;2023-03-11T03:31:49;4.53;;;1.00;;
52898;SDS011;38763;53.096;6.062;2023-03-11T03:34:15;6.10;;;1.20;;
52898;SDS011;38763;53.096;6.062;2023-03-11T03:36:41;5.55;;;1.27;;
52898;SDS011;38763;53.096;6.062;2023-03-11T03:39:06;4.90;;;1.30;;
52898;SDS011;38763;53.096;6.062;2023-03-11T03:41:32;6.05;;;1.60;;
52898;SDS011;38763;53.096;6.062;2023-03-11T03:43:58;5.60;;;1.38;;
52898;SDS011;38763;53.096;6.062;2023-03-11T03:46:23;6.32;;;1.20;;
52898;SDS011;38763;53.096;6.062;2023-03-11T03:48:49;6.63;;;1.20;;
52898;SDS011;38763;53.096;6.062;2023-03-11T03:51:15;5.63;;;1.30;;
52898;SDS011;38763;53.096;6.062;2023-03-11T03:53:41;4.70;;;1.10;;
52898;SDS011;38763;53.096;6.062;2023-03-11T03:56:09;6.13;;;1.20;;
52898;SDS011;38763;53.096;6.062;2023-03-11T03:58:36;3.13;;;1.15;;
52898;SDS011;38763;53.096;6.062;2023-03-11T04:01:03;6.63;;;1.25;;
52898;SDS011;38763;53.096;6.062;2023-03-11T04:03:32;4.50;;;1.30;;
52898;SDS011;38763;53.096;6.062;2023-03-11T04:06:06;5.45;;;1.23;;
52898;SDS011;38763;53.096;6.062;2023-03-11T04:08:43;3.63;;;1.20;;
52898;SDS011;38763;53.096;6.062;2023-03-11T04:11:08;10.57;;;1.48;;
52898;SDS011;38763;53.096;6.062;2023-03-11T04:13:34;5.82;;;1.30;;
52898;SDS011;38763;53.096;6.062;2023-03-11T04:16:02;3.33;;;1.10;;
52898;SDS011;38763;53.096;6.062;2023-03-11T04:18:29;6.68;;;1.30;;
52898;SDS011;38763;53.096;6.062;2023-03-11T04:20:54;5.78;;;1.10;;
52898;SDS011;38763;53.096;6.062;2023-03-11T04:23:20;3.10;;;1.20;;
52898;SDS011;38763;53.096;6.062;2023-03-11T04:25:45;6.00;;;1.30;;
52898;SDS011;38763;53.096;6.062;2023-03-11T04:28:11;8.88;;;1.20;;
52898;SDS011;38763;53.096;6.062;2023-03-11T04:30:38;7.88;;;1.42;;
52898;SDS011;38763;53.096;6.062;2023-03-11T04:33:04;7.25;;;1.48;;
52898;SDS011;38763;53.096;6.062;2023-03-11T04:35:29;6.88;;;1.20;;
52898;SDS011;38763;53.096;6.062;2023-03-11T04:37:55;4.57;;;1.25;;
52898;SDS011;38763;53.096;6.062;2023-03-11T04:40:21;6.60;;;1.63;;
52898;SDS011;38763;53.096;6.062;2023-03-11T04:42:47;6.55;;;1.40;;
52898;SDS011;38763;53.096;6.062;2023-03-11T04:45:12;7.45;;;1.55;;
52898;SDS011;38763;53.096;6.062;2023-03-11T04:47:38;4.57;;;1.20;;
52898;SDS011;38763;53.096;6.062;2023-03-11T04:50:04;5.72;;;1.33;;
52898;SDS011;38763;53.096;6.062;2023-03-11T04:52:30;7.00;;;1.30;;
52898;SDS011;38763;53.096;6.062;2023-03-11T04:54:55;5.70;;;1.30;;
52898;SDS011;38763;53.096;6.062;2023-03-11T04:57:21;7.65;;;1.95;;
52898;SDS011;38763;53.096;6.062;2023-03-11T04:59:47;3.58;;;1.27;;
52898;SDS011;38763;53.096;6.062;2023-03-11T05:02:12;7.60;;;1.48;;
52898;SDS011;38763;53.096;6.062;2023-03-11T05:04:38;5.75;;;1.23;;
52898;SDS011;38763;53.096;6.062;2023-03-11T05:07:03;6.35;;;1.50;;
52898;SDS011;38763;53.096;6.062;2023-03-11T05:09:29;4.63;;;1.40;;
52898;SDS011;38763;53.096;6.062;2023-03-11T05:11:55;3.85;;;1.40;;
52898;SDS011;38763;53.096;6.062;2023-03-11T05:14:20;6.97;;;1.67;;
52898;SDS011;38763;53.096;6.062;2023-03-11T05:16:47;8.95;;;1.67;;
52898;SDS011;38763;53.096;6.062;2023-03-11T05:19:12;7.45;;;1.95;;
52898;SDS011;38763;53.096;6.062;2023-03-11T05:21:58;7.68;;;1.50;;
52898;SDS011;38763;53.096;6.062;2023-03-11T05:24:25;7.88;;;1.60;;
52898;SDS011;38763;53.096;6.062;2023-03-11T05:26:51;4.07;;;1.50;;
52898;SDS011;38763;53.096;6.062;2023-03-11T05:29:17;3.88;;;1.38;;
52898;SDS011;38763;53.096;6.062;2023-03-11T05:31:43;6.90;;;1.38;;
52898;SDS011;38763;53.096;6.062;2023-03-11T05:34:09;5.95;;;1.50;;
52898;SDS011;38763;53.096;6.062;2023-03-11T05:36:34;4.50;;;1.50;;
52898;SDS011;38763;53.096;6.062;2023-03-11T05:39:00;5.30;;;1.30;;
52898;SDS011;38763;53.096;6.062;2023-03-11T05:41:26;3.72;;;1.35;;
52898;SDS011;38763;53.096;6.062;2023-03-11T05:43:51;4.55;;;1.35;;
52898;SDS011;38763;53.096;6.062;2023-03-11T05:46:17;7.43;;;1.80;;
52898;SDS011;38763;53.096;6.062;2023-03-11T05:48:44;6.53;;;1.83;;
52898;SDS011;38763;53.096;6.062;2023-03-11T05:51:10;5.32;;;1.55;;
52898;SDS011;38763;53.096;6.062;2023-03-11T05:53:37;9.82;;;2.80;;
52898;SDS011;38763;53.096;6.062;2023-03-11T05:56:03;9.52;;;2.78;;
52898;SDS011;38763;53.096;6.062;2023-03-11T05:58:29;8.93;;;3.42;;
52898;SDS011;38763;53.096;6.062;2023-03-11T06:00:56;7.40;;;2.50;;
52898;SDS011;38763;53.096;6.062;2023-03-11T06:03:23;8.23;;;2.92;;
52898;SDS011;38763;53.096;6.062;2023-03-11T06:05:49;10.20;;;2.55;;
52898;SDS011;38763;53.096;6.062;2023-03-11T06:08:15;9.10;;;3.00;;
52898;SDS011;38763;53.096;6.062;2023-03-11T06:10:41;6.55;;;2.70;;
52898;SDS011;38763;53.096;6.062;2023-03-11T06:13:08;7.60;;;3.00;;
52898;SDS011;38763;53.096;6.062;2023-03-11T06:15:34;8.20;;;2.58;;
52898;SDS011;38763;53.096;6.062;2023-03-11T06:18:01;8.63;;;2.50;;
52898;SDS011;38763;53.096;6.062;2023-03-11T06:20:28;5.28;;;2.25;;
52898;SDS011;38763;53.096;6.062;2023-03-11T06:22:54;8.50;;;2.30;;
52898;SDS011;38763;53.096;6.062;2023-03-11T06:25:20;6.60;;;2.03;;
52898;SDS011;38763;53.096;6.062;2023-03-11T06:27:50;8.52;;;2.38;;
52898;SDS011;38763;53.096;6.062;2023-03-11T06:30:17;6.95;;;2.25;;
52898;SDS011;38763;53.096;6.062;2023-03-11T06:32:46;6.38;;;1.98;;
52898;SDS011;38763;53.096;6.062;2023-03-11T06:35:12;6.57;;;2.10;;
52898;SDS011;38763;53.096;6.062;2023-03-11T06:37:38;8.38;;;1.90;;
52898;SDS011;38763;53.096;6.062;2023-03-11T06:40:06;6.30;;;1.80;;
52898;SDS011;38763;53.096;6.062;2023-03-11T06:42:33;6.82;;;1.90;;
52898;SDS011;38763;53.096;6.062;2023-03-11T06:44:59;6.30;;;1.98;;
52898;SDS011;38763;53.096;6.062;2023-03-11T06:47:25;7.15;;;2.03;;
52898;SDS011;38763;53.096;6.062;2023-03-11T06:49:51;8.00;;;1.83;;
52898;SDS011;38763;53.096;6.062;2023-03-11T06:52:17;5.55;;;2.30;;
52898;SDS011;38763;53.096;6.062;2023-03-11T06:54:43;6.88;;;2.00;;
52898;SDS011;38763;53.096;6.062;2023-03-11T06:57:09;6.95;;;1.83;;
52898;SDS011;38763;53.096;6.062;2023-03-11T06:59:35;9.45;;;2.15;;
52898;SDS011;38763;53.096;6.062;2023-03-11T07:02:01;9.48;;;2.00;;
52898;SDS011;38763;53.096;6.062;2023-03-11T07:04:29;6.90;;;2.17;;
52898;SDS011;38763;53.096;6.062;2023-03-11T07:06:55;8.52;;;2.53;;
52898;SDS011;38763;53.096;6.062;2023-03-11T07:09:21;6.32;;;2.30;;
52898;SDS011;38763;53.096;6.062;2023-03-11T07:11:49;7.32;;;2.33;;
52898;SDS011;38763;53.096;6.062;2023-03-11T07:14:17;6.28;;;2.40;;
52898;SDS011;38763;53.096;6.062;2023-03-11T07:16:43;9.65;;;2.25;;
52898;SDS011;38763;53.096;6.062;2023-03-11T07:19:10;8.30;;;2.30;;
52898;SDS011;38763;53.096;6.062;2023-03-11T07:21:36;8.57;;;2.00;;
52898;SDS011;38763;53.096;6.062;2023-03-11T07:24:03;8.80;;;2.13;;
52898;SDS011;38763;53.096;6.062;2023-03-11T07:26:30;9.13;;;2.40;;
52898;SDS011;38763;53.096;6.062;2023-03-11T07:28:57;8.43;;;2.10;;
52898;SDS011;38763;53.096;6.062;2023-03-11T07:31:24;7.53;;;2.20;;
52898;SDS011;38763;53.096;6.062;2023-03-11T07:33:51;17.13;;;2.40;;
52898;SDS011;38763;53.096;6.062;2023-03-11T07:36:18;6.53;;;2.33;;
52898;SDS011;38763;53.096;6.062;2023-03-11T07:38:45;11.23;;;2.63;;
52898;SDS011;38763;53.096;6.062;2023-03-11T07:41:12;6.93;;;1.75;;
52898;SDS011;38763;53.096;6.062;2023-03-11T07:43:38;17.63;;;2.92;;
52898;SDS011;38763;53.096;6.062;2023-03-11T07:48:33;7.35;;;2.10;;
52898;SDS011;38763;53.096;6.062;2023-03-11T07:51:03;10.27;;;2.60;;
52898;SDS011;38763;53.096;6.062;2023-03-11T07:53:31;8.70;;;1.83;;
52898;SDS011;38763;53.096;6.062;2023-03-11T07:55:58;9.30;;;2.45;;
52898;SDS011;38763;53.096;6.062;2023-03-11T07:58:24;10.48;;;2.05;;
52898;SDS011;38763;53.096;6.062;2023-03-11T08:00:50;11.98;;;2.30;;
52898;SDS011;38763;53.096;6.062;2023-03-11T08:03:16;9.35;;;1.88;;
52898;SDS011;38763;53.096;6.062;2023-03-11T08:05:42;5.63;;;2.13;;
52898;SDS011;38763;53.096;6.062;2023-03-11T08:08:08;9.15;;;2.35;;
52898;SDS011;38763;53.096;6.062;2023-03-11T08:10:37;9.98;;;1.85;;
52898;SDS011;38763;53.096;6.062;2023-03-11T08:13:03;7.47;;;1.77;;
52898;SDS011;38763;53.096;6.062;2023-03-11T08:15:29;7.70;;;1.85;;
52898;SDS011;38763;53.096;6.062;2023-03-11T08:17:55;8.00;;;1.88;;
52898;SDS011;38763;53.096;6.062;2023-03-11T08:20:21;6.95;;;1.88;;
52898;SDS011;38763;53.096;6.062;2023-03-11T08:22:46;10.80;;;2.13;;
52898;SDS011;38763;53.096;6.062;2023-03-11T08:25:12;9.98;;;1.85;;
52898;SDS011;38763;53.096;6.062;2023-03-11T08:27:38;3.38;;;1.50;;
52898;SDS011;38763;53.096;6.062;2023-03-11T08:30:05;10.80;;;2.17;;
52898;SDS011;38763;53.096;6.062;2023-03-11T08:32:31;5.03;;;1.40;;
52898;SDS011;38763;53.096;6.062;2023-03-11T08:34:57;4.57;;;1.65;;
52898;SDS011;38763;53.096;6.062;2023-03-11T08:37:23;6.30;;;1.73;;
52898;SDS011;38763;53.096;6.062;2023-03-11T08:39:48;5.38;;;1.60;;
52898;SDS011;38763;53.096;6.062;2023-03-11T08:42:15;7.35;;;2.05;;
52898;SDS011;38763;53.096;6.062;2023-03-11T08:44:41;7.10;;;1.63;;
52898;SDS011;38763;53.096;6.062;2023-03-11T08:47:07;9.52;;;2.30;;
52898;SDS011;38763;53.096;6.062;2023-03-11T08:49:33;7.35;;;2.42;;
52898;SDS011;38763;53.096;6.062;2023-03-11T08:52:00;12.23;;;3.10;;
52898;SDS011;38763;53.096;6.062;2023-03-11T08:54:26;12.32;;;3.40;;
52898;SDS011;38763;53.096;6.062;2023-03-11T08:56:52;6.93;;;2.75;;
52898;SDS011;38763;53.096;6.062;2023-03-11T08:59:18;6.70;;;2.60;;
52898;SDS011;38763;53.096;6.062;2023-03-11T09:01:44;7.45;;;2.50;;
52898;SDS011;38763;53.096;6.062;2023-03-11T09:04:11;6.95;;;2.10;;
52898;SDS011;38763;53.096;6.062;2023-03-11T09:06:40;8.15;;;2.25;;
52898;SDS011;38763;53.096;6.062;2023-03-11T09:09:08;8.98;;;2.00;;
52898;SDS011;38763;53.096;6.062;2023-03-11T09:11:35;5.68;;;1.80;;
52898;SDS011;38763;53.096;6.062;2023-03-11T09:14:02;8.93;;;2.03;;
52898;SDS011;38763;53.096;6.062;2023-03-11T09:16:28;6.38;;;1.80;;
52898;SDS011;38763;53.096;6.062;2023-03-11T09:18:54;7.38;;;2.10;;
52898;SDS011;38763;53.096;6.062;2023-03-11T09:21:20;11.02;;;2.05;;
52898;SDS011;38763;53.096;6.062;2023-03-11T09:23:46;6.07;;;1.92;;
52898;SDS011;38763;53.096;6.062;2023-03-11T09:26:13;10.45;;;2.80;;
52898;SDS011;38763;53.096;6.062;2023-03-11T09:28:39;10.75;;;2.90;;
52898;SDS011;38763;53.096;6.062;2023-03-11T09:31:05;12.00;;;2.80;;
52898;SDS011;38763;53.096;6.062;2023-03-11T09:33:34;7.50;;;2.40;;
52898;SDS011;38763;53.096;6.062;2023-03-11T09:36:04;6.75;;;1.88;;
52898;SDS011;38763;53.096;6.062;2023-03-11T09:38:31;7.60;;;2.00;;
52898;SDS011;38763;53.096;6.062;2023-03-11T09:40:58;7.63;;;1.98;;
52898;SDS011;38763;53.096;6.062;2023-03-11T09:43:30;10.43;;;2.47;;
52898;SDS011;38763;53.096;6.062;2023-03-11T09:48:46;5.05;;;1.75;;
52898;SDS011;38763;53.096;6.062;2023-03-11T09:51:24;5.30;;;1.60;;
52898;SDS011;38763;53.096;6.062;2023-03-11T09:53:54;4.15;;;1.60;;
52898;SDS011;38763;53.096;6.062;2023-03-11T09:56:26;5.03;;;1.58;;
52898;SDS011;38763;53.096;6.062;2023-03-11T09:59:00;4.82;;;1.88;;
52898;SDS011;38763;53.096;6.062;2023-03-11T10:01:31;7.95;;;1.73;;
52898;SDS011;38763;53.096;6.062;2023-03-11T10:04:01;8.55;;;2.00;;
52898;SDS011;38763;53.096;6.062;2023-03-11T10:06:32;3.53;;;1.50;;
52898;SDS011;38763;53.096;6.062;2023-03-11T10:25:19;7.75;;;1.95;;
52898;SDS011;38763;53.096;6.062;2023-03-11T10:28:05;7.72;;;1.95;;
52898;SDS011;38763;53.096;6.062;2023-03-11T10:30:42;3.50;;;1.42;;
52898;SDS011;38763;53.096;6.062;2023-03-11T10:33:20;6.63;;;2.00;;
52898;SDS011;38763;53.096;6.062;2023-03-11T10:35:54;6.90;;;1.75;;
52898;SDS011;38763;53.096;6.062;2023-03-11T10:38:32;6.72;;;1.77;;
52898;SDS011;38763;53.096;6.062;2023-03-11T10:41:05;9.10;;;1.48;;
52898;SDS011;38763;53.096;6.062;2023-03-11T10:46:33;7.90;;;1.40;;
52898;SDS011;38763;53.096;6.062;2023-03-11T10:48:59;5.82;;;1.70;;
52898;SDS011;38763;53.096;6.062;2023-03-11T10:51:34;5.43;;;1.25;;
52898;SDS011;38763;53.096;6.062;2023-03-11T10:54:00;5.03;;;1.30;;
52898;SDS011;38763;53.096;6.062;2023-03-11T10:56:34;6.88;;;1.60;;
52898;SDS011;38763;53.096;6.062;2023-03-11T11:07:48;9.05;;;1.00;;
52898;SDS011;38763;53.096;6.062;2023-03-11T11:12:52;6.88;;;1.13;;
52898;SDS011;38763;53.096;6.062;2023-03-11T11:17:56;5.13;;;1.20;;
52898;SDS011;38763;53.096;6.062;2023-03-11T11:20:24;5.38;;;1.10;;
52898;SDS011;38763;53.096;6.062;2023-03-11T11:22:56;6.47;;;1.10;;
52898;SDS011;38763;53.096;6.062;2023-03-11T11:25:33;11.38;;;1.45;;
52898;SDS011;38763;53.096;6.062;2023-03-11T11:28:14;7.30;;;1.35;;
52898;SDS011;38763;53.096;6.062;2023-03-11T11:30:51;5.45;;;1.20;;
52898;SDS011;38763;53.096;6.062;2023-03-11T11:35:56;5.43;;;1.25;;
52898;SDS011;38763;53.096;6.062;2023-03-11T11:38:24;5.93;;;1.25;;
52898;SDS011;38763;53.096;6.062;2023-03-11T11:40:51;3.55;;;1.10;;
52898;SDS011;38763;53.096;6.062;2023-03-11T11:46:06;6.85;;;1.35;;
52898;SDS011;38763;53.096;6.062;2023-03-11T11:48:49;6.80;;;1.23;;
52898;SDS011;38763;53.096;6.062;2023-03-11T11:51:21;6.65;;;1.23;;
52898;SDS011;38763;53.096;6.062;2023-03-11T11:56:53;7.68;;;1.23;;
52898;SDS011;38763;53.096;6.062;2023-03-11T11:59:20;8.18;;;1.20;;
52898;SDS011;38763;53.096;6.062;2023-03-11T12:05:14;5.70;;;1.17;;
52898;SDS011;38763;53.096;6.062;2023-03-11T12:26:33;3.35;;;1.00;;
52898;SDS011;38763;53.096;6.062;2023-03-11T12:29:14;3.85;;;1.20;;
52898;SDS011;38763;53.096;6.062;2023-03-11T12:31:48;5.78;;;1.30;;
52898;SDS011;38763;53.096;6.062;2023-03-11T12:34:15;4.22;;;1.08;;
52898;SDS011;38763;53.096;6.062;2023-03-11T12:36:44;6.75;;;1.20;;
52898;SDS011;38763;53.096;6.062;2023-03-11T12:39:19;2.40;;;0.98;;
52898;SDS011;38763;53.096;6.062;2023-03-11T12:42:27;5.93;;;1.05;;
52898;SDS011;38763;53.096;6.062;2023-03-11T12:44:49;4.90;;;1.00;;
52898;SDS011;38763;53.096;6.062;2023-03-11T12:49:46;4.38;;;0.68;;
52898;SDS011;38763;53.096;6.062;2023-03-11T12:54:46;4.10;;;0.97;;
52898;SDS011;38763;53.096;6.062;2023-03-11T12:57:35;4.95;;;1.02;;
52898;SDS011;38763;53.096;6.062;2023-03-11T13:01:08;6.53;;;1.20;;
52898;SDS011;38763;53.096;6.062;2023-03-11T13:03:33;3.85;;;0.80;;
52898;SDS011;38763;53.096;6.062;2023-03-11T13:09:01;8.13;;;1.05;;
52898;SDS011;38763;53.096;6.062;2023-03-11T13:16:54;5.30;;;1.00;;
52898;SDS011;38763;53.096;6.062;2023-03-11T13:21:50;2.85;;;0.90;;
52898;SDS011;38763;53.096;6.062;2023-03-11T13:35:32;2.88;;;0.75;;
52898;SDS011;38763;53.096;6.062;2023-03-11T13:41:00;5.38;;;0.75;;
52898;SDS011;38763;53.096;6.062;2023-03-11T13:43:28;11.45;;;0.98;;
52898;SDS011;38763;53.096;6.062;2023-03-11T13:45:59;2.75;;;0.80;;
52898;SDS011;38763;53.096;6.062;2023-03-11T13:48:30;5.97;;;0.98;;
52898;SDS011;38763;53.096;6.062;2023-03-11T13:51:02;2.53;;;0.75;;
52898;SDS011;38763;53.096;6.062;2023-03-11T13:53:33;4.43;;;0.98;;
52898;SDS011;38763;53.096;6.062;2023-03-11T13:56:33;3.28;;;0.75;;
52898;SDS011;38763;53.096;6.062;2023-03-11T13:59:14;9.07;;;0.82;;
52898;SDS011;38763;53.096;6.062;2023-03-11T14:04:52;3.70;;;0.80;;
52898;SDS011;38763;53.096;6.062;2023-03-11T14:07:28;3.13;;;0.73;;
52898;SDS011;38763;53.096;6.062;2023-03-11T14:12:42;4.60;;;0.90;;
52898;SDS011;38763;53.096;6.062;2023-03-11T14:15:12;4.38;;;0.80;;
52898;SDS011;38763;53.096;6.062;2023-03-11T14:17:49;2.80;;;0.98;;
52898;SDS011;38763;53.096;6.062;2023-03-11T14:20:17;4.28;;;0.85;;
52898;SDS011;38763;53.096;6.062;2023-03-11T14:22:50;3.53;;;0.77;;
52898;SDS011;38763;53.096;6.062;2023-03-11T14:25:23;4.60;;;1.05;;
52898;SDS011;38763;53.096;6.062;2023-03-11T14:27:54;2.60;;;0.80;;
52898;SDS011;38763;53.096;6.062;2023-03-11T14:30:27;4.55;;;0.65;;
52898;SDS011;38763;53.096;6.062;2023-03-11T14:33:36;2.80;;;0.57;;
52898;SDS011;38763;53.096;6.062;2023-03-11T14:35:52;5.22;;;0.93;;
52898;SDS011;38763;53.096;6.062;2023-03-11T14:38:24;5.35;;;0.82;;
52898;SDS011;38763;53.096;6.062;2023-03-11T14:40:53;4.05;;;0.73;;
52898;SDS011;38763;53.096;6.062;2023-03-11T14:43:22;5.78;;;1.00;;
52898;SDS011;38763;53.096;6.062;2023-03-11T14:45:48;6.50;;;0.80;;
52898;SDS011;38763;53.096;6.062;2023-03-11T14:48:29;6.72;;;1.00;;
52898;SDS011;38763;53.096;6.062;2023-03-11T14:51:01;7.28;;;1.35;;
52898;SDS011;38763;53.096;6.062;2023-03-11T14:53:35;4.38;;;1.15;;
52898;SDS011;38763;53.096;6.062;2023-03-11T14:56:15;3.05;;;0.88;;
52898;SDS011;38763;53.096;6.062;2023-03-11T14:58:46;7.35;;;0.80;;
52898;SDS011;38763;53.096;6.062;2023-03-11T15:01:21;4.60;;;0.80;;
52898;SDS011;38763;53.096;6.062;2023-03-11T15:06:28;3.25;;;0.68;;
52898;SDS011;38763;53.096;6.062;2023-03-11T15:11:29;2.45;;;0.90;;
52898;SDS011;38763;53.096;6.062;2023-03-11T15:17:12;4.43;;;0.60;;
52898;SDS011;38763;53.096;6.062;2023-03-11T15:19:46;3.42;;;0.60;;
52898;SDS011;38763;53.096;6.062;2023-03-11T15:24:56;3.47;;;0.60;;
52898;SDS011;38763;53.096;6.062;2023-03-11T15:27:33;14.00;;;6.53;;
52898;SDS011;38763;53.096;6.062;2023-03-11T15:30:03;7.05;;;1.70;;
52898;SDS011;38763;53.096;6.062;2023-03-11T15:32:41;2.80;;;0.80;;
52898;SDS011;38763;53.096;6.062;2023-03-11T15:37:34;5.90;;;3.85;;
52898;SDS011;38763;53.096;6.062;2023-03-11T15:45:53;4.35;;;1.13;;
52898;SDS011;38763;53.096;6.062;2023-03-11T15:48:20;4.07;;;1.00;;
52898;SDS011;38763;53.096;6.062;2023-03-11T15:50:50;2.47;;;1.08;;
52898;SDS011;38763;53.096;6.062;2023-03-11T15:53:21;1.08;;;0.45;;
52898;SDS011;38763;53.096;6.062;2023-03-11T15:55:48;1.98;;;0.73;;
52898;SDS011;38763;53.096;6.062;2023-03-11T15:58:15;4.15;;;0.60;;
52898;SDS011;38763;53.096;6.062;2023-03-11T16:00:46;2.35;;;0.75;;
52898;SDS011;38763;53.096;6.062;2023-03-11T16:03:17;2.90;;;1.00;;
52898;SDS011;38763;53.096;6.062;2023-03-11T16:05:44;5.32;;;2.10;;
52898;SDS011;38763;53.096;6.062;2023-03-11T16:08:10;4.25;;;1.40;;
52898;SDS011;38763;53.096;6.062;2023-03-11T16:10:36;5.53;;;2.00;;
52898;SDS011;38763;53.096;6.062;2023-03-11T16:13:02;3.25;;;1.23;;
52898;SDS011;38763;53.096;6.062;2023-03-11T16:15:33;5.45;;;0.93;;
52898;SDS011;38763;53.096;6.062;2023-03-11T16:18:00;3.83;;;1.30;;
52898;SDS011;38763;53.096;6.062;2023-03-11T16:20:29;3.35;;;1.50;;
52898;SDS011;38763;53.096;6.062;2023-03-11T16:23:18;3.75;;;1.20;;
52898;SDS011;38763;53.096;6.062;2023-03-11T16:25:46;4.25;;;1.40;;
52898;SDS011;38763;53.096;6.062;2023-03-11T16:28:13;5.28;;;1.65;;
52898;SDS011;38763;53.096;6.062;2023-03-11T16:30:39;1.95;;;1.00;;
52898;SDS011;38763;53.096;6.062;2023-03-11T16:33:05;3.92;;;1.33;;
52898;SDS011;38763;53.096;6.062;2023-03-11T16:35:31;2.22;;;1.00;;
52898;SDS011;38763;53.096;6.062;2023-03-11T16:38:00;7.30;;;1.45;;
52898;SDS011;38763;53.096;6.062;2023-03-11T16:40:26;2.60;;;1.10;;
52898;SDS011;38763;53.096;6.062;2023-03-11T16:42:54;4.25;;;1.40;;
52898;SDS011;38763;53.096;6.062;2023-03-11T16:45:23;4.20;;;1.90;;
52898;SDS011;38763;53.096;6.062;2023-03-11T16:47:49;4.93;;;2.30;;
52898;SDS011;38763;53.096;6.062;2023-03-11T16:50:15;7.53;;;2.40;;
52898;SDS011;38763;53.096;6.062;2023-03-11T16:52:40;9.80;;;4.95;;
52898;SDS011;38763;53.096;6.062;2023-03-11T16:55:06;19.40;;;7.90;;
52898;SDS011;38763;53.096;6.062;2023-03-11T16:57:32;16.77;;;7.18;;
52898;SDS011;38763;53.096;6.062;2023-03-11T16:59:58;10.25;;;2.72;;
52898;SDS011;38763;53.096;6.062;2023-03-11T17:02:24;7.40;;;4.13;;
52898;SDS011;38763;53.096;6.062;2023-03-11T17:04:50;8.82;;;2.13;;
52898;SDS011;38763;53.096;6.062;2023-03-11T17:07:16;3.45;;;1.63;;
52898;SDS011;38763;53.096;6.062;2023-03-11T17:09:42;4.32;;;1.45;;